Time;durP1;ratioP1;P1;durP2;ratioP2;P2;SDS_P1;SDS_P2;PMS_P1;PMS_P2;Temp;Humidity;BMP_temperature;BMP_pressure;BME280_temperature;BME280_humidity;BME280_pressure;Samples;Min_cycle;Max_cycle;Signal;HPM_P1;HPM_P2
2022/06/07 00:00:14;;;;;;;2.92;1.30;;;23.60;43.10;;;;;;5117520;28;20019;-46
2022/06/07 00:02:40;;;;;;;2.10;1.17;;;23.60;43.00;;;;;;5115826;28;20041;-45
2022/06/07 00:05:06;;;;;;;2.10;1.10;;;23.60;43.00;;;;;;5117167;28;20041;-48
2022/06/07 00:07:32;;;;;;;2.92;1.23;;;23.60;43.00;;;;;;5117113;28;20482;-46
2022/06/07 00:09:58;;;;;;;3.15;1.13;;;23.50;42.90;;;;;;5120540;28;20020;-43
2022/06/07 00:12:25;;;;;;;3.33;1.20;;;23.60;43.00;;;;;;5121829;28;20012;-43
2022/06/07 00:14:51;;;;;;;2.83;1.13;;;23.50;42.90;;;;;;5120778;28;20030;-45
2022/06/07 00:17:16;;;;;;;2.25;1.15;;;23.60;42.90;;;;;;5120975;28;20015;-51
2022/06/07 00:19:42;;;;;;;2.78;1.20;;;23.50;42.80;;;;;;5119912;28;20044;-48
2022/06/07 00:22:08;;;;;;;3.10;1.27;;;23.50;42.80;;;;;;5120455;28;20114;-49
2022/06/07 00:24:34;;;;;;;1.92;1.15;;;23.50;42.80;;;;;;5119549;28;20471;-48
2022/06/07 00:27:01;;;;;;;2.67;1.42;;;23.50;42.80;;;;;;5118988;28;20016;-47
2022/06/07 00:29:27;;;;;;;3.33;1.15;;;23.50;42.70;;;;;;5117629;28;20363;-44
2022/06/07 00:31:52;;;;;;;2.22;1.17;;;23.50;42.70;;;;;;5118873;28;20019;-43
2022/06/07 00:34:18;;;;;;;2.88;1.30;;;23.50;42.60;;;;;;5118993;28;20023;-49
2022/06/07 00:36:44;;;;;;;3.53;1.33;;;23.50;42.60;;;;;;5123291;28;20026;-46
2022/06/07 00:39:10;;;;;;;2.33;1.20;;;23.50;42.60;;;;;;5124210;28;20439;-43
2022/06/07 00:41:36;;;;;;;3.17;1.20;;;23.50;42.60;;;;;;5122534;28;20016;-43
2022/06/07 00:44:20;;;;;;;4.22;1.20;;;23.50;42.60;;;;;;5119685;28;20016;-45
2022/06/07 00:46:52;;;;;;;3.15;1.35;;;23.50;42.60;;;;;;5120172;28;20019;-45
2022/06/07 00:49:18;;;;;;;2.92;1.17;;;23.50;42.50;;;;;;5119475;28;20019;-45
2022/06/07 00:51:45;;;;;;;3.35;1.25;;;23.50;42.50;;;;;;5120254;28;20612;-44
2022/06/07 00:54:17;;;;;;;3.78;1.10;;;23.50;42.50;;;;;;5121313;28;20016;-51
2022/06/07 00:56:43;;;;;;;3.75;1.52;;;23.40;42.40;;;;;;5122866;28;20023;-51
2022/06/07 00:59:08;;;;;;;2.50;1.10;;;23.40;42.40;;;;;;5122734;28;20374;-45
2022/06/07 01:01:35;;;;;;;2.83;1.27;;;23.40;42.40;;;;;;5103536;28;20027;-46
2022/06/07 01:04:02;;;;;;;4.10;1.50;;;23.40;42.40;;;;;;5102355;28;20016;-46
2022/06/07 01:11:57;;;;;;;3.25;1.20;;;23.40;42.30;;;;;;5118980;28;20061;-44
2022/06/07 01:14:22;;;;;;;2.47;1.20;;;23.40;42.30;;;;;;5101365;28;20026;-46
2022/06/07 01:16:48;;;;;;;2.83;1.10;;;23.40;42.30;;;;;;5118549;28;20028;-43
2022/06/07 01:19:14;;;;;;;2.72;1.05;;;23.30;42.20;;;;;;5119280;28;20530;-42
2022/06/07 01:21:41;;;;;;;2.30;1.25;;;23.40;42.30;;;;;;5118860;28;20069;-48
2022/06/07 01:24:07;;;;;;;2.42;1.13;;;23.40;42.20;;;;;;5118680;28;20044;-43
2022/06/07 01:26:33;;;;;;;1.63;1.10;;;23.40;42.30;;;;;;5118932;28;20026;-49
2022/06/07 01:28:59;;;;;;;1.80;1.10;;;23.40;42.30;;;;;;5119067;28;20032;-47
2022/06/07 01:31:26;;;;;;;2.55;1.40;;;23.40;42.20;;;;;;5117724;28;20047;-45
2022/06/07 01:33:51;;;;;;;4.40;1.58;;;23.30;42.20;;;;;;5118934;28;20401;-44
2022/06/07 01:36:17;;;;;;;3.25;1.10;;;23.40;42.20;;;;;;5118887;28;20024;-46
2022/06/07 01:38:45;;;;;;;2.60;1.08;;;23.40;42.20;;;;;;5119188;28;20095;-46
2022/06/07 01:43:56;;;;;;;2.10;0.95;;;23.30;42.10;;;;;;5116964;28;20110;-42
2022/06/07 01:46:22;;;;;;;2.40;1.30;;;23.30;42.00;;;;;;5117559;28;20473;-43
2022/06/07 01:48:48;;;;;;;2.80;1.10;;;23.30;42.00;;;;;;5116066;28;20032;-44
2022/06/07 01:51:14;;;;;;;2.60;1.08;;;23.30;42.00;;;;;;5116266;28;20000;-45
2022/06/07 01:53:40;;;;;;;3.15;1.05;;;23.30;42.00;;;;;;5115810;28;20041;-46
2022/06/07 01:56:14;;;;;;;2.05;0.98;;;23.30;42.00;;;;;;5116113;28;20019;-45
2022/06/07 01:58:42;;;;;;;2.55;1.00;;;23.30;42.10;;;;;;5115873;28;20031;-44
2022/06/07 02:01:08;;;;;;;1.95;0.95;;;23.30;42.00;;;;;;5116332;28;20019;-43
2022/06/07 02:03:34;;;;;;;2.42;1.13;;;23.30;42.00;;;;;;5116653;28;20012;-42
2022/06/07 02:06:24;;;;;;;2.22;0.90;;;23.30;42.00;;;;;;5117676;28;20016;-45
2022/06/07 02:08:50;;;;;;;2.58;1.13;;;23.20;42.00;;;;;;5118038;28;20028;-46
2022/06/07 02:11:20;;;;;;;2.95;1.10;;;23.30;42.00;;;;;;5121299;28;20027;-50
2022/06/07 02:13:46;;;;;;;1.52;1.00;;;23.20;42.00;;;;;;5119987;28;20008;-48
2022/06/07 02:16:12;;;;;;;2.28;1.05;;;23.30;42.00;;;;;;5121134;28;20094;-47
2022/06/07 02:18:38;;;;;;;5.25;1.33;;;23.30;42.00;;;;;;5119779;28;20008;-49
2022/06/07 02:21:05;;;;;;;2.20;0.90;;;23.30;42.00;;;;;;5120050;28;20020;-51
2022/06/07 02:23:31;;;;;;;2.22;1.08;;;23.30;42.00;;;;;;5119744;28;20578;-47
2022/06/07 02:26:05;;;;;;;2.65;1.27;;;23.20;42.00;;;;;;5118743;28;20008;-51
2022/06/07 02:28:34;;;;;;;1.88;0.90;;;23.20;42.00;;;;;;5119362;28;20082;-47
2022/06/07 02:31:00;;;;;;;4.35;1.33;;;23.20;42.00;;;;;;5119007;28;20098;-49
2022/06/07 02:33:26;;;;;;;5.18;1.17;;;23.20;42.10;;;;;;5119172;28;20108;-51
2022/06/07 02:35:52;;;;;;;3.13;1.40;;;23.20;42.00;;;;;;5102453;28;20023;-49
2022/06/07 02:38:18;;;;;;;2.83;0.98;;;23.20;42.00;;;;;;5118890;28;20039;-46
2022/06/07 02:40:44;;;;;;;3.08;1.10;;;23.20;42.10;;;;;;5119936;28;20077;-51
2022/06/07 02:43:10;;;;;;;3.40;1.20;;;23.20;42.00;;;;;;5120675;28;20020;-51
2022/06/07 02:45:36;;;;;;;3.10;1.00;;;23.20;42.00;;;;;;5120204;28;20035;-47
2022/06/07 02:48:02;;;;;;;1.73;1.00;;;23.20;42.00;;;;;;5119529;28;20069;-43
2022/06/07 02:50:28;;;;;;;2.08;1.00;;;23.20;42.00;;;;;;5120337;28;20497;-45
2022/06/07 02:52:54;;;;;;;3.83;1.50;;;23.20;42.10;;;;;;5120413;28;20016;-42
2022/06/07 02:55:19;;;;;;;2.15;0.93;;;23.20;42.10;;;;;;5120320;28;20015;-43
2022/06/07 02:57:45;;;;;;;3.15;1.25;;;23.20;42.10;;;;;;5120101;28;20382;-44
2022/06/07 03:00:13;;;;;;;3.95;1.25;;;23.10;42.60;;;;;;5122321;28;20028;-46
2022/06/07 03:02:39;;;;;;;2.95;0.98;;;23.20;42.10;;;;;;5123795;28;20023;-52
2022/06/07 03:05:05;;;;;;;2.25;1.23;;;23.10;42.10;;;;;;5123818;28;20065;-50
2022/06/07 03:07:31;;;;;;;3.30;1.20;;;23.10;42.10;;;;;;5121659;27;20046;-50
2022/06/07 03:09:57;;;;;;;2.92;1.23;;;23.10;42.20;;;;;;5121105;28;20028;-45
2022/06/07 03:12:23;;;;;;;2.13;1.02;;;23.10;42.20;;;;;;5120727;28;20023;-44
2022/06/07 03:14:50;;;;;;;2.67;1.23;;;23.10;42.10;;;;;;5119827;28;20054;-45
2022/06/07 03:17:16;;;;;;;2.15;1.00;;;23.10;42.10;;;;;;5118573;28;20008;-44
2022/06/07 03:19:42;;;;;;;3.30;1.42;;;23.10;42.10;;;;;;5118233;28;20026;-50
2022/06/07 03:22:09;;;;;;;1.92;0.90;;;23.10;42.10;;;;;;5117742;28;20063;-45
2022/06/07 03:24:35;;;;;;;2.60;1.30;;;23.10;42.10;;;;;;5119412;28;20023;-47
2022/06/07 03:27:02;;;;;;;3.28;1.30;;;23.10;42.10;;;;;;5120428;28;20478;-43
2022/06/07 03:29:28;;;;;;;2.08;1.10;;;23.10;42.10;;;;;;5119731;28;20093;-45
2022/06/07 03:31:54;;;;;;;2.58;1.20;;;23.20;42.20;;;;;;5120737;28;20016;-44
2022/06/07 03:34:21;;;;;;;2.00;0.77;;;23.10;42.20;;;;;;5120908;28;20007;-50
2022/06/07 03:36:47;;;;;;;2.13;1.02;;;23.10;42.20;;;;;;5120648;28;20037;-43
2022/06/07 03:39:13;;;;;;;2.90;0.90;;;23.10;42.20;;;;;;5119030;28;20027;-41
2022/06/07 03:41:39;;;;;;;2.08;1.00;;;23.10;42.20;;;;;;5114972;28;20028;-42
2022/06/07 03:44:06;;;;;;;3.70;1.23;;;23.10;42.20;;;;;;5114897;28;20031;-45
2022/06/07 03:46:35;;;;;;;2.10;1.10;;;23.10;42.20;;;;;;5116258;28;20020;-40
2022/06/07 03:49:01;;;;;;;3.15;1.00;;;23.10;42.20;;;;;;5116474;28;20019;-42
2022/06/07 03:51:29;;;;;;;3.55;1.17;;;23.10;42.20;;;;;;5115910;28;20099;-43
2022/06/07 03:53:55;;;;;;;3.03;0.90;;;23.10;42.30;;;;;;5115283;28;20423;-47
2022/06/07 03:56:21;;;;;;;2.45;1.00;;;23.10;42.30;;;;;;5117882;28;20008;-47
2022/06/07 03:58:47;;;;;;;3.53;1.40;;;23.10;42.30;;;;;;5119082;28;20020;-45
2022/06/07 04:01:15;;;;;;;3.20;1.13;;;23.10;42.30;;;;;;5119501;28;20012;-44
2022/06/07 04:03:43;;;;;;;3.83;1.27;;;23.10;42.20;;;;;;5119781;28;20012;-45
2022/06/07 04:06:15;;;;;;;2.60;1.10;;;23.10;42.20;;;;;;5120932;28;20037;-43
2022/06/07 04:08:41;;;;;;;4.85;1.73;;;23.10;42.10;;;;;;5122593;28;20027;-44
2022/06/07 04:11:09;;;;;;;3.53;1.27;;;23.10;42.10;;;;;;5123909;28;20019;-44
2022/06/07 04:13:35;;;;;;;2.45;1.00;;;23.10;42.10;;;;;;5123329;28;20012;-47
2022/06/07 04:16:06;;;;;;;2.85;1.20;;;23.10;42.10;;;;;;5124718;28;20015;-45
2022/06/07 04:18:41;;;;;;;3.17;1.00;;;23.10;42.10;;;;;;5124896;28;20069;-49
2022/06/07 04:21:07;;;;;;;6.13;1.20;;;23.10;42.10;;;;;;5122644;28;20036;-45
2022/06/07 04:23:33;;;;;;;3.13;1.13;;;23.10;42.10;;;;;;5121796;28;20058;-44
2022/06/07 04:26:26;;;;;;;3.92;1.10;;;23.20;42.00;;;;;;5119414;28;20023;-44
2022/06/07 04:28:52;;;;;;;3.20;1.10;;;23.30;41.90;;;;;;5116854;28;20034;-42
2022/06/07 04:31:19;;;;;;;3.45;1.00;;;23.30;41.90;;;;;;5119913;28;20498;-44
2022/06/07 04:33:46;;;;;;;3.92;1.10;;;23.30;41.80;;;;;;5120085;28;20012;-44
2022/06/07 04:36:14;;;;;;;3.05;1.00;;;23.30;41.80;;;;;;5119961;28;20032;-42
2022/06/07 04:38:40;;;;;;;3.80;1.08;;;23.30;41.80;;;;;;5119358;28;20008;-44
2022/06/07 04:41:10;;;;;;;3.72;1.15;;;23.40;41.80;;;;;;5120119;28;20027;-43
2022/06/07 04:43:36;;;;;;;4.57;1.30;;;23.40;41.70;;;;;;5119212;28;20090;-41
2022/06/07 04:46:06;;;;;;;2.55;1.02;;;23.50;41.60;;;;;;5118917;28;20079;-43
2022/06/07 04:48:32;;;;;;;2.45;1.00;;;23.60;41.30;;;;;;5119067;28;20007;-41
2022/06/07 04:51:04;;;;;;;2.78;1.30;;;23.70;41.10;;;;;;5119630;28;20561;-46
2022/06/07 04:53:31;;;;;;;4.18;1.20;;;23.90;41.00;;;;;;5101950;28;20055;-42
2022/06/07 04:55:57;;;;;;;2.35;1.10;;;24.00;40.70;;;;;;5118535;28;20010;-44
2022/06/07 04:58:23;;;;;;;2.85;0.90;;;24.00;40.60;;;;;;5119162;28;20419;-41
2022/06/07 05:00:49;;;;;;;1.60;0.82;;;24.10;40.50;;;;;;5118925;28;20019;-43
2022/06/07 05:03:15;;;;;;;2.55;1.10;;;24.10;40.40;;;;;;5118937;28;20023;-46
2022/06/07 05:05:41;;;;;;;3.58;1.27;;;24.10;40.30;;;;;;5117067;28;20390;-42
2022/06/07 05:08:07;;;;;;;2.88;1.15;;;24.20;40.30;;;;;;5121170;28;20026;-42
2022/06/07 05:10:33;;;;;;;3.08;1.00;;;24.10;40.20;;;;;;5102972;28;20024;-45
2022/06/07 05:12:59;;;;;;;2.67;1.10;;;24.10;40.30;;;;;;5121304;28;20383;-43
2022/06/07 05:15:24;;;;;;;2.08;0.98;;;24.10;40.40;;;;;;5120160;28;20480;-42
2022/06/07 05:17:50;;;;;;;2.88;1.02;;;24.10;40.50;;;;;;5119430;28;20011;-49
2022/06/07 05:20:16;;;;;;;2.05;1.00;;;24.10;40.60;;;;;;5116221;28;20416;-42
2022/06/07 05:22:42;;;;;;;2.65;1.00;;;24.10;40.60;;;;;;5115845;28;20502;-42
2022/06/07 05:25:08;;;;;;;2.25;1.00;;;24.20;40.50;;;;;;5117686;28;20020;-41
2022/06/07 05:27:40;;;;;;;1.67;1.00;;;24.20;40.30;;;;;;5118943;28;20031;-42
2022/06/07 05:30:06;;;;;;;3.25;1.00;;;24.20;40.30;;;;;;5118820;28;20020;-44
2022/06/07 05:32:33;;;;;;;1.80;0.95;;;24.40;40.30;;;;;;5118061;28;20020;-42
2022/06/07 05:34:59;;;;;;;3.50;0.95;;;24.40;40.20;;;;;;5119789;28;20027;-46
2022/06/07 05:37:25;;;;;;;4.18;1.13;;;24.40;40.00;;;;;;5120180;28;20020;-47
2022/06/07 05:39:51;;;;;;;2.50;1.10;;;24.40;40.20;;;;;;5120944;28;20035;-41
2022/06/07 05:42:17;;;;;;;5.15;1.58;;;24.30;40.30;;;;;;5100677;28;20024;-43
2022/06/07 05:44:43;;;;;;;2.10;1.05;;;24.30;40.40;;;;;;5118828;28;20080;-44
2022/06/07 05:47:10;;;;;;;1.85;1.10;;;24.20;40.50;;;;;;5119570;28;20035;-45
2022/06/07 05:49:36;;;;;;;1.90;0.98;;;24.20;40.60;;;;;;5119316;28;20028;-43
2022/06/07 05:52:03;;;;;;;3.08;1.23;;;24.20;40.80;;;;;;5119338;27;20011;-45
2022/06/07 05:54:29;;;;;;;2.83;1.10;;;24.10;40.80;;;;;;5120082;28;20012;-43
2022/06/07 05:56:58;;;;;;;3.03;1.10;;;24.10;40.90;;;;;;5116196;28;20016;-41
2022/06/07 05:59:24;;;;;;;4.05;1.15;;;24.10;41.00;;;;;;5118290;28;20039;-42
2022/06/07 06:01:50;;;;;;;2.10;1.10;;;24.10;41.00;;;;;;5117619;28;20179;-43
2022/06/07 06:04:16;;;;;;;1.58;1.00;;;24.00;41.10;;;;;;5117106;28;20016;-42
2022/06/07 06:06:42;;;;;;;2.30;1.00;;;24.10;41.10;;;;;;5115602;28;20016;-46
2022/06/07 06:11:52;;;;;;;1.80;0.80;;;24.00;41.30;;;;;;5117502;28;20026;-45
2022/06/07 06:14:21;;;;;;;1.88;1.00;;;24.00;41.40;;;;;;5115451;28;20478;-42
2022/06/07 06:16:47;;;;;;;2.35;1.10;;;24.00;41.50;;;;;;5116404;28;20012;-42
2022/06/07 06:19:15;;;;;;;2.83;0.98;;;24.00;41.40;;;;;;5114841;28;20015;-44
2022/06/07 06:21:43;;;;;;;3.97;0.98;;;23.90;41.70;;;;;;5115353;27;20020;-45
2022/06/07 06:24:09;;;;;;;8.95;1.55;;;23.90;41.70;;;;;;5115219;28;20082;-43
2022/06/07 06:26:37;;;;;;;3.72;1.20;;;23.80;44.00;;;;;;5116549;28;20057;-43
2022/06/07 06:29:03;;;;;;;8.98;1.45;;;23.80;42.90;;;;;;5115820;27;20470;-43
2022/06/07 06:31:29;;;;;;;14.10;1.77;;;23.90;45.20;;;;;;5115240;28;20023;-45
2022/06/07 06:33:57;;;;;;;14.75;1.90;;;24.00;46.60;;;;;;5115040;28;20012;-42
2022/06/07 06:36:29;;;;;;;16.25;2.10;;;24.00;46.80;;;;;;5115265;28;20057;-42
2022/06/07 06:38:55;;;;;;;14.90;1.92;;;24.10;46.70;;;;;;5115736;28;20019;-47
2022/06/07 06:41:25;;;;;;;14.80;2.05;;;24.10;47.40;;;;;;5114000;28;20024;-44
2022/06/07 06:43:51;;;;;;;25.67;2.60;;;24.10;48.00;;;;;;5115355;28;20023;-44
2022/06/07 06:46:19;;;;;;;13.75;2.35;;;24.10;47.50;;;;;;5115749;28;20035;-44
2022/06/07 06:48:44;;;;;;;16.30;2.03;;;24.10;47.20;;;;;;5115311;28;20040;-46
2022/06/07 06:51:12;;;;;;;18.05;2.95;;;24.10;47.40;;;;;;5115205;28;20065;-45
2022/06/07 06:53:38;;;;;;;12.27;2.10;;;24.20;47.50;;;;;;5115007;28;20027;-45
2022/06/07 06:56:05;;;;;;;16.30;1.85;;;24.20;47.90;;;;;;5115059;28;20145;-48
2022/06/07 06:58:31;;;;;;;12.68;2.42;;;24.30;47.40;;;;;;5115098;28;20473;-44
2022/06/07 07:01:11;;;;;;;14.45;1.83;;;24.20;47.40;;;;;;5115952;28;20035;-49
2022/06/07 07:03:37;;;;;;;;;;;24.20;47.30;;;;;;5116190;28;20030;-43
2022/06/07 07:06:03;;;;;;;13.68;1.95;;;24.30;47.40;;;;;;5115998;28;19900;-49
2022/06/07 07:08:29;;;;;;;12.48;2.10;;;24.20;47.30;;;;;;5114195;28;20094;-45
2022/06/07 07:11:12;;;;;;;9.65;1.85;;;24.20;47.40;;;;;;5114750;28;20060;-44
2022/06/07 07:13:37;;;;;;;14.23;2.20;;;24.30;47.50;;;;;;5114044;28;20035;-43
2022/06/07 07:16:06;;;;;;;29.40;2.78;;;24.30;47.40;;;;;;5111423;28;20007;-41
2022/06/07 07:18:32;;;;;;;34.35;3.47;;;24.10;47.30;;;;;;5113725;28;20123;-43
2022/06/07 07:20:58;;;;;;;27.42;2.53;;;23.50;49.10;;;;;;5114414;28;20034;-48
2022/06/07 07:23:24;;;;;;;28.23;2.55;;;23.30;48.70;;;;;;5113701;28;20044;-44
2022/06/07 07:25:53;;;;;;;28.15;2.70;;;23.10;50.50;;;;;;5115564;28;20035;-43
2022/06/07 07:28:19;;;;;;;23.27;2.40;;;23.20;49.70;;;;;;5097389;28;20084;-46
2022/06/07 07:30:45;;;;;;;44.10;4.22;;;23.10;50.40;;;;;;5114008;28;20432;-44
2022/06/07 07:33:11;;;;;;;36.58;3.00;;;23.00;50.60;;;;;;5114675;28;20374;-40
2022/06/07 07:35:37;;;;;;;41.03;4.30;;;23.00;51.20;;;;;;5114338;28;20061;-43
2022/06/07 07:38:03;;;;;;;33.67;2.60;;;22.90;52.20;;;;;;5114272;28;20115;-40
2022/06/07 07:40:29;;;;;;;44.63;2.80;;;22.90;52.10;;;;;;5114694;28;20084;-45
2022/06/07 07:42:54;;;;;;;21.75;2.25;;;22.80;51.80;;;;;;5112567;28;20107;-40
2022/06/07 07:45:20;;;;;;;36.25;2.65;;;22.80;51.40;;;;;;5114532;28;20077;-40
2022/06/07 07:47:46;;;;;;;20.90;2.50;;;22.70;52.00;;;;;;5114168;28;20012;-41
2022/06/07 07:50:12;;;;;;;27.80;2.10;;;22.80;52.00;;;;;;5113492;28;20077;-41
2022/06/07 07:52:38;;;;;;;17.65;1.73;;;22.80;51.20;;;;;;5113605;28;20012;-44
2022/06/07 07:55:05;;;;;;;30.08;2.97;;;22.80;51.10;;;;;;5113149;28;20522;-44
2022/06/07 07:57:31;;;;;;;27.27;2.58;;;22.70;51.40;;;;;;5113697;28;20016;-43
2022/06/07 07:59:57;;;;;;;24.17;2.00;;;22.60;51.50;;;;;;5113964;28;20011;-42
2022/06/07 08:02:23;;;;;;;24.10;2.00;;;22.70;51.50;;;;;;5112960;28;20020;-43
2022/06/07 08:04:50;;;;;;;19.92;2.30;;;22.80;52.00;;;;;;5111991;28;20046;-42
2022/06/07 08:07:16;;;;;;;35.67;2.75;;;22.80;51.80;;;;;;5111539;28;20073;-44
2022/06/07 08:09:43;;;;;;;24.67;2.10;;;22.70;52.10;;;;;;5111975;28;20081;-42
2022/06/07 08:12:08;;;;;;;21.40;2.10;;;22.60;52.60;;;;;;5114902;28;20024;-45
2022/06/07 08:14:34;;;;;;;33.13;3.45;;;22.50;52.80;;;;;;5114502;28;20016;-42
2022/06/07 08:17:01;;;;;;;25.27;2.78;;;22.50;53.10;;;;;;5094664;28;20016;-46
2022/06/07 08:19:27;;;;;;;22.00;1.80;;;22.60;52.20;;;;;;5112122;28;20110;-40
2022/06/07 08:21:52;;;;;;;17.92;1.70;;;22.80;51.50;;;;;;5111457;28;20182;-41
2022/06/07 08:24:18;;;;;;;13.02;1.25;;;23.00;51.00;;;;;;5111902;28;20076;-40
2022/06/07 08:26:46;;;;;;;12.15;1.40;;;22.90;51.00;;;;;;5113584;28;20489;-41
2022/06/07 08:29:12;;;;;;;12.05;1.70;;;22.90;51.00;;;;;;5112981;27;20027;-47
2022/06/07 08:31:38;;;;;;;15.57;1.35;;;22.90;51.10;;;;;;5112683;28;20035;-41
2022/06/07 08:39:33;;;;;;;7.03;1.17;;;22.80;51.40;;;;;;5113080;28;20089;-40
2022/06/07 08:42:12;;;;;;;5.43;1.20;;;22.70;51.60;;;;;;5113010;28;20388;-40
2022/06/07 08:44:44;;;;;;;5.30;0.93;;;22.60;51.90;;;;;;5113943;28;20065;-41
2022/06/07 08:47:17;;;;;;;5.53;1.25;;;22.60;52.20;;;;;;5114731;28;20027;-43
2022/06/07 08:49:44;;;;;;;4.78;1.00;;;22.70;51.90;;;;;;5113236;28;20020;-50
2022/06/07 08:52:23;;;;;;;6.03;1.40;;;22.70;51.90;;;;;;5095118;28;20080;-41
2022/06/07 08:54:48;;;;;;;5.75;1.40;;;22.60;52.00;;;;;;5112292;28;20014;-43
2022/06/07 08:57:24;;;;;;;4.07;1.00;;;22.60;52.10;;;;;;5117377;28;20381;-43
2022/06/07 08:59:54;;;;;;;6.30;1.10;;;22.50;52.00;;;;;;5118143;28;20032;-42
2022/06/07 09:02:54;;;;;;;3.72;1.33;;;22.60;51.80;;;;;;5118228;28;20023;-43
2022/06/07 09:05:20;;;;;;;4.07;0.85;;;22.60;51.70;;;;;;5115724;28;20470;-43
2022/06/07 09:07:46;;;;;;;7.22;0.85;;;22.60;51.80;;;;;;5114745;28;20111;-40
2022/06/07 09:13:20;;;;;;;21.70;2.22;;;22.60;52.50;;;;;;5053704;28;20033;-41
2022/06/07 09:15:49;;;;;;;24.70;1.98;;;22.50;54.80;;;;;;5053080;28;20024;-42
2022/06/07 09:18:16;;;;;;;27.15;2.22;;;22.40;55.50;;;;;;5052952;28;20512;-43
2022/06/07 09:20:48;;;;;;;21.30;2.35;;;22.40;55.40;;;;;;5019666;28;20054;-43
2022/06/07 09:23:32;;;;;;;19.23;1.55;;;22.50;54.90;;;;;;5020595;28;20056;-44
2022/06/07 09:26:10;;;;;;;19.05;1.95;;;22.60;54.60;;;;;;5052825;28;20025;-41
2022/06/07 09:28:37;;;;;;;10.18;1.33;;;22.70;54.40;;;;;;5052498;28;20078;-44
2022/06/07 09:31:10;;;;;;;10.43;1.75;;;22.50;54.40;;;;;;5052525;28;20045;-43
2022/06/07 09:33:57;;;;;;;14.82;1.77;;;22.50;55.00;;;;;;5036771;28;20597;-44
2022/06/07 09:36:29;;;;;;;5.70;1.33;;;22.40;55.70;;;;;;5036347;28;20050;-44
2022/06/07 09:38:57;;;;;;;9.68;1.35;;;22.40;56.10;;;;;;5053400;28;20563;-51
2022/06/07 09:41:40;;;;;;;9.95;1.40;;;22.40;55.70;;;;;;5053639;28;20013;-44
2022/06/07 09:44:25;;;;;;;5.57;1.30;;;22.10;56.70;;;;;;5076472;28;20038;-43
2022/06/07 09:47:02;;;;;;;7.05;1.13;;;22.10;56.90;;;;;;5115249;28;20016;-44
2022/06/07 09:49:38;;;;;;;6.00;1.40;;;22.30;56.50;;;;;;5116065;28;20024;-42
2022/06/07 09:52:17;;;;;;;8.15;1.58;;;22.10;57.10;;;;;;5116404;28;20008;-42
2022/06/07 09:54:44;;;;;;;7.05;1.50;;;22.30;57.10;;;;;;5116307;28;20016;-41
2022/06/07 09:57:26;;;;;;;8.00;1.13;;;22.50;56.50;;;;;;5115899;28;20007;-42
2022/06/07 10:00:04;;;;;;;11.63;1.80;;;22.60;56.10;;;;;;5116335;28;20038;-44
2022/06/07 10:03:00;;;;;;;11.85;1.60;;;22.70;56.60;;;;;;5116314;28;20023;-44
2022/06/07 10:05:49;;;;;;;11.68;1.90;;;22.40;57.50;;;;;;5115593;28;20020;-47
2022/06/07 10:08:56;;;;;;;6.53;1.60;;;22.70;56.80;;;;;;5114403;28;20023;-48
2022/06/07 10:11:28;;;;;;;12.27;1.65;;;23.00;55.70;;;;;;5107667;28;20076;-48
2022/06/07 10:14:22;;;;;;;8.63;1.90;;;23.20;55.30;;;;;;5114024;28;20012;-46
2022/06/07 10:17:01;;;;;;;5.95;1.30;;;23.30;55.20;;;;;;5115219;28;20027;-45
2022/06/07 10:19:45;;;;;;;9.00;1.50;;;23.50;54.30;;;;;;5115938;28;20015;-45
2022/06/07 10:22:20;;;;;;;9.63;1.40;;;23.50;54.10;;;;;;5115919;28;20035;-44
2022/06/07 10:24:56;;;;;;;5.80;1.15;;;23.60;53.70;;;;;;5116428;28;20019;-44
2022/06/07 10:27:45;;;;;;;9.18;1.50;;;23.60;53.80;;;;;;5115535;28;20016;-44
2022/06/07 10:30:21;;;;;;;7.60;1.27;;;23.60;53.80;;;;;;5114181;28;20477;-42
2022/06/07 10:32:58;;;;;;;3.72;1.08;;;23.40;53.80;;;;;;5114367;28;20052;-41
2022/06/07 10:36:01;;;;;;;3.20;0.90;;;23.40;54.00;;;;;;5113846;28;20012;-42
2022/06/07 10:38:51;;;;;;;7.20;1.50;;;23.40;53.70;;;;;;5115296;28;20023;-41
2022/06/07 10:41:29;;;;;;;2.72;1.00;;;23.40;53.80;;;;;;5114020;28;20027;-41
2022/06/07 10:44:10;;;;;;;3.42;1.10;;;23.50;53.60;;;;;;5115630;28;20023;-42
2022/06/07 10:46:38;;;;;;;7.30;1.30;;;23.30;53.70;;;;;;5113173;28;20030;-42
2022/06/07 10:49:28;;;;;;;6.85;1.45;;;23.20;55.10;;;;;;5112526;28;20092;-40
2022/06/07 10:54:55;;;;;;;10.50;1.77;;;23.50;55.00;;;;;;5113595;28;19922;-42
2022/06/07 10:57:23;;;;;;;9.60;1.60;;;23.60;55.10;;;;;;5113457;28;20095;-43
2022/06/07 10:59:49;;;;;;;8.60;1.50;;;23.70;54.50;;;;;;5113486;28;20046;-41
2022/06/07 11:02:43;;;;;;;8.05;1.60;;;23.80;54.70;;;;;;5096155;28;20072;-41
2022/06/07 11:11:04;;;;;;;7.00;1.30;;;23.70;55.50;;;;;;5114456;28;20165;-44
2022/06/07 11:13:39;;;;;;;6.15;1.45;;;23.70;55.30;;;;;;5096452;28;20031;-42
2022/06/07 11:16:40;;;;;;;4.82;1.40;;;23.70;55.10;;;;;;5113116;28;20083;-43
2022/06/07 11:19:07;;;;;;;5.35;1.20;;;23.80;54.20;;;;;;5102251;28;20047;-43
2022/06/07 11:21:38;;;;;;;8.95;1.10;;;23.80;53.80;;;;;;5095124;28;20054;-43
2022/06/07 11:24:22;;;;;;;2.20;0.98;;;23.80;54.30;;;;;;5113111;28;20062;-44
2022/06/07 11:27:07;;;;;;;3.13;1.00;;;23.90;53.50;;;;;;5114037;28;20103;-43
2022/06/07 11:29:33;;;;;;;4.63;0.93;;;23.70;54.80;;;;;;5113924;28;20339;-42
2022/06/07 11:32:00;;;;;;;5.60;1.00;;;23.80;54.30;;;;;;5113522;28;20016;-45
2022/06/07 11:34:34;;;;;;;2.08;0.80;;;23.90;53.40;;;;;;5114051;28;20019;-44
2022/06/07 11:37:16;;;;;;;7.30;1.08;;;23.60;54.00;;;;;;5112495;28;20022;-42
2022/06/07 11:39:41;;;;;;;7.03;1.10;;;23.80;54.10;;;;;;5112803;28;20040;-42
2022/06/07 11:42:07;;;;;;;10.68;1.40;;;23.90;54.40;;;;;;5113991;28;20041;-45
2022/06/07 11:44:39;;;;;;;6.88;1.38;;;24.00;53.80;;;;;;5115275;28;20077;-45
2022/06/07 11:47:07;;;;;;;7.47;1.10;;;24.00;54.20;;;;;;5113916;28;20472;-43
2022/06/07 11:49:54;;;;;;;9.68;1.00;;;24.10;54.00;;;;;;5114437;28;20024;-46
2022/06/07 11:52:28;;;;;;;6.65;1.10;;;24.30;53.40;;;;;;5104609;28;20553;-44
2022/06/07 11:55:17;;;;;;;8.60;1.38;;;24.50;53.30;;;;;;5113852;28;20015;-43
2022/06/07 11:57:56;;;;;;;7.88;1.20;;;24.50;53.70;;;;;;5098532;28;20082;-45
2022/06/07 12:00:22;;;;;;;9.38;1.20;;;24.40;53.10;;;;;;5115383;28;20019;-43
2022/06/07 12:02:57;;;;;;;6.47;1.20;;;24.50;52.80;;;;;;5114743;28;20023;-42
2022/06/07 12:05:36;;;;;;;5.05;1.33;;;24.50;52.60;;;;;;5112765;28;20026;-42
2022/06/07 12:08:21;;;;;;;;;;;24.50;52.40;;;;;;5114795;28;20008;-44
2022/06/07 12:10:56;;;;;;;6.43;0.90;;;24.50;52.70;;;;;;5114986;28;19943;-46
2022/06/07 12:16:19;;;;;;;3.05;0.80;;;24.70;52.30;;;;;;5114798;28;20487;-48
2022/06/07 12:18:55;;;;;;;4.30;1.00;;;24.80;52.00;;;;;;5113605;28;20770;-45
2022/06/07 12:21:21;;;;;;;8.77;1.15;;;24.80;51.90;;;;;;5114202;28;20057;-46
2022/06/07 12:23:48;;;;;;;5.22;0.88;;;24.80;51.60;;;;;;5114292;28;20465;-44
2022/06/07 12:26:28;;;;;;;5.53;1.13;;;25.00;51.60;;;;;;5114903;28;20070;-44
2022/06/07 12:28:57;;;;;;;4.32;1.30;;;24.90;51.50;;;;;;5114321;28;20015;-44
2022/06/07 12:32:13;;;;;;;6.45;1.00;;;24.60;51.60;;;;;;5117395;28;20011;-42
2022/06/07 12:34:39;;;;;;;4.25;1.13;;;24.60;51.90;;;;;;5119982;28;20102;-42
2022/06/07 12:37:11;;;;;;;4.60;0.77;;;24.60;51.80;;;;;;5118156;28;20081;-42
2022/06/07 12:39:49;;;;;;;5.25;1.02;;;24.80;51.80;;;;;;5119259;28;20026;-45
2022/06/07 12:42:17;;;;;;;7.45;1.33;;;24.80;51.60;;;;;;5119097;27;20126;-43
2022/06/07 12:44:53;;;;;;;3.83;0.90;;;24.70;51.70;;;;;;5119187;28;20023;-45
2022/06/07 12:47:36;;;;;;;4.75;0.90;;;24.70;51.80;;;;;;5117293;28;20019;-46
2022/06/07 12:50:04;;;;;;;4.13;1.20;;;24.70;51.70;;;;;;5117046;28;20031;-50
2022/06/07 12:52:31;;;;;;;5.70;1.10;;;24.80;51.50;;;;;;5119026;28;20040;-42
2022/06/07 12:55:01;;;;;;;5.70;1.35;;;24.80;51.60;;;;;;5100433;28;20016;-42
2022/06/07 12:57:31;;;;;;;3.00;1.00;;;24.80;51.70;;;;;;5118843;28;20012;-43
2022/06/07 13:00:13;;;;;;;4.88;1.23;;;24.80;51.60;;;;;;5116463;28;20008;-43
2022/06/07 13:02:39;;;;;;;7.90;1.30;;;24.80;51.70;;;;;;5117550;28;20024;-43
2022/06/07 13:05:07;;;;;;;2.83;1.00;;;24.90;51.50;;;;;;5117951;28;20019;-42
2022/06/07 13:07:41;;;;;;;4.68;1.30;;;24.90;51.50;;;;;;5116964;28;20099;-44
2022/06/07 13:10:09;;;;;;;3.60;1.20;;;25.00;51.20;;;;;;5117069;28;20015;-44
2022/06/07 13:12:36;;;;;;;3.90;1.20;;;25.10;50.90;;;;;;5101961;28;20012;-45
2022/06/07 13:15:10;;;;;;;5.78;1.40;;;25.10;50.80;;;;;;5101187;28;20008;-45
2022/06/07 13:17:39;;;;;;;5.90;1.20;;;25.10;50.90;;;;;;5117698;28;20053;-45
2022/06/07 13:20:07;;;;;;;4.82;1.20;;;25.10;50.90;;;;;;5117812;28;20023;-44
2022/06/07 13:22:40;;;;;;;6.85;1.10;;;25.10;50.90;;;;;;5120238;28;20112;-46
2022/06/07 13:25:26;;;;;;;2.58;1.10;;;25.10;50.80;;;;;;5120564;28;20063;-47
2022/06/07 13:28:03;;;;;;;5.20;1.38;;;25.10;50.80;;;;;;5121487;28;20020;-50
2022/06/07 13:30:32;;;;;;;4.88;1.20;;;25.10;50.60;;;;;;5121070;28;20062;-48